Time;durP1;ratioP1;P1;durP2;ratioP2;P2;SDS_P1;SDS_P2;PMS_P1;PMS_P2;Temp;Humidity;BMP_temperature;BMP_pressure;BME280_temperature;BME280_humidity;BME280_pressure;Samples;Min_cycle;Max_cycle;Signal;HPM_P1;HPM_P2
2023/04/17 00:01:54;;;;;;;0.93;0.93;;;;;;;12.80;100.00;99594.19;5052397;28;20199;-78
2023/04/17 00:04:22;;;;;;;0.85;0.85;;;;;;;12.94;100.00;99594.16;5052383;28;20219;-77
2023/04/17 00:06:52;;;;;;;0.80;0.80;;;;;;;12.86;100.00;99588.09;5052734;28;20223;-77
2023/04/17 00:09:19;;;;;;;0.90;0.90;;;;;;;12.85;100.00;99594.16;5051575;28;20204;-75
2023/04/17 00:11:46;;;;;;;0.90;0.90;;;;;;;12.80;100.00;99588.97;5052354;28;20230;-77
2023/04/17 00:14:12;;;;;;;1.08;1.08;;;;;;;12.96;100.00;99587.19;5052022;28;20204;-76
2023/04/17 00:16:39;;;;;;;0.70;0.70;;;;;;;12.88;100.00;99588.94;5052272;28;20227;-78
2023/04/17 00:19:06;;;;;;;0.70;0.70;;;;;;;12.82;100.00;99596.75;5052344;28;20226;-78
2023/04/17 00:21:34;;;;;;;1.02;1.02;;;;;;;12.69;100.00;99577.72;5052880;28;20211;-77
2023/04/17 00:24:01;;;;;;;0.70;0.70;;;;;;;12.76;100.00;99587.25;5051865;28;20203;-77
2023/04/17 00:26:28;;;;;;;0.98;0.98;;;;;;;12.56;100.00;99576.00;5052363;28;20250;-75
2023/04/17 00:28:55;;;;;;;0.60;0.60;;;;;;;12.80;100.00;99581.19;5052264;28;20205;-76
2023/04/17 00:31:21;;;;;;;0.65;0.65;;;;;;;12.71;100.00;99572.50;5052028;28;20269;-77
2023/04/17 00:33:48;;;;;;;0.88;0.88;;;;;;;12.80;100.00;99585.50;5052167;28;20596;-76
2023/04/17 00:36:15;;;;;;;0.77;0.77;;;;;;;12.58;100.00;99576.00;5051992;28;20214;-78
2023/04/17 00:38:43;;;;;;;0.70;0.70;;;;;;;12.69;100.00;99566.44;5052159;28;20195;-77
2023/04/17 00:41:10;;;;;;;2.83;1.40;;;;;;;12.57;100.00;99587.25;5051683;28;20605;-77
2023/04/17 00:43:37;;;;;;;1.00;1.00;;;;;;;12.52;100.00;99578.63;5033405;28;20227;-76
2023/04/17 00:46:05;;;;;;;0.65;0.65;;;;;;;12.37;100.00;99575.16;5051460;28;20223;-75
2023/04/17 00:48:33;;;;;;;0.63;0.63;;;;;;;12.52;100.00;99583.81;5051824;28;20215;-77
2023/04/17 00:51:02;;;;;;;1.27;1.27;;;;;;;12.46;100.00;99586.41;5052001;28;20196;-76
2023/04/17 00:53:29;;;;;;;0.60;0.60;;;;;;;12.51;100.00;99588.16;5051978;28;20195;-76
2023/04/17 00:55:58;;;;;;;1.10;1.10;;;;;;;12.36;100.00;99563.03;5051335;28;20284;-77
2023/04/17 00:58:25;;;;;;;0.70;0.70;;;;;;;12.54;100.00;99588.16;5051846;28;20207;-77
2023/04/17 01:00:52;;;;;;;0.80;0.80;;;;;;;12.53;100.00;99569.94;5051236;28;20204;-77
2023/04/17 01:03:20;;;;;;;0.70;0.70;;;;;;;12.64;100.00;99586.38;5051979;28;20300;-77
2023/04/17 01:05:50;;;;;;;0.60;0.60;;;;;;;12.71;100.00;99590.72;5051163;28;20227;-77
2023/04/17 01:08:18;;;;;;;1.85;1.60;;;;;;;12.66;100.00;99585.53;5051238;28;20277;-76
2023/04/17 01:10:45;;;;;;;1.00;1.00;;;;;;;12.62;100.00;99555.19;5051157;28;20793;-77
2023/04/17 01:13:13;;;;;;;3.60;1.52;;;;;;;12.84;100.00;99595.03;5051553;28;20191;-76
2023/04/17 01:15:40;;;;;;;0.65;0.65;;;;;;;12.66;100.00;99587.28;5054574;28;20206;-77
2023/04/17 01:18:06;;;;;;;0.55;0.55;;;;;;;12.53;100.00;99591.59;5053316;28;20679;-77
2023/04/17 01:20:33;;;;;;;1.30;1.30;;;;;;;12.39;100.00;99536.16;5059879;28;20204;-77
2023/04/17 01:23:01;;;;;;;0.60;0.60;;;;;;;12.77;100.00;99581.16;5057028;28;20199;-76
2023/04/17 01:25:30;;;;;;;0.70;0.70;;;;;;;12.70;100.00;99565.59;5052895;28;20611;-77
2023/04/17 01:27:56;;;;;;;0.90;0.90;;;;;;;12.78;100.00;99587.22;5034288;28;20599;-77
2023/04/17 01:30:23;;;;;;;1.00;1.00;;;;;;;12.73;100.00;99583.78;5051111;28;20199;-77
2023/04/17 01:32:50;;;;;;;0.73;0.73;;;;;;;12.61;100.00;99584.66;5051023;28;20196;-77
2023/04/17 01:35:17;;;;;;;0.75;0.75;;;;;;;12.72;100.00;99566.44;5050875;28;20195;-77
2023/04/17 01:37:43;;;;;;;0.70;0.70;;;;;;;12.76;100.00;99584.66;5050126;28;20191;-77
2023/04/17 01:40:11;;;;;;;0.70;0.70;;;;;;;12.73;100.00;99583.78;5050062;28;20192;-76
2023/04/17 01:42:39;;;;;;;0.68;0.68;;;;;;;12.62;100.00;99568.19;5014817;28;20204;-76
2023/04/17 01:45:07;;;;;;;0.80;0.80;;;;;;;12.61;100.00;99583.78;5050789;28;20200;-76
2023/04/17 01:47:34;;;;;;;0.80;0.80;;;;;;;12.52;100.00;99589.03;5050190;28;20215;-77
2023/04/17 01:50:01;;;;;;;0.80;0.80;;;;;;;12.57;100.00;99579.47;5050689;28;20199;-73
2023/04/17 01:52:27;;;;;;;0.73;0.73;;;;;;;12.66;100.00;99569.06;5050854;28;20233;-77
2023/04/17 01:54:54;;;;;;;0.68;0.68;;;;;;;12.65;100.00;99575.13;5049952;28;20203;-77
2023/04/17 01:57:21;;;;;;;0.60;0.60;;;;;;;12.56;100.00;99564.72;5049954;28;20282;-77
2023/04/17 01:59:49;;;;;;;0.90;0.90;;;;;;;12.83;100.00;99580.28;5031376;28;20198;-76
2023/04/17 02:02:16;;;;;;;1.67;1.58;;;;;;;12.58;100.00;99574.28;5050207;28;20202;-77
2023/04/17 02:04:43;;;;;;;1.00;1.00;;;;;;;12.62;100.00;99583.81;5050355;28;20249;-76
2023/04/17 02:07:09;;;;;;;0.82;0.82;;;;;;;12.64;100.00;99575.97;5049189;28;20695;-76
2023/04/17 02:09:36;;;;;;;1.15;1.15;;;;;;;12.49;100.00;99583.78;5050768;28;20207;-75
2023/04/17 02:12:03;;;;;;;1.02;1.02;;;;;;;12.69;100.00;99576.84;5050418;28;20226;-76
2023/04/17 02:14:30;;;;;;;0.80;0.80;;;;;;;12.18;100.00;99529.25;5050955;28;20196;-76
2023/04/17 02:16:58;;;;;;;0.65;0.65;;;;;;;12.62;100.00;99582.94;5050623;28;20195;-75
2023/04/17 02:19:25;;;;;;;0.68;0.68;;;;;;;12.47;100.00;99554.34;5050483;28;20203;-78
2023/04/17 02:21:52;;;;;;;0.60;0.60;;;;;;;12.56;100.00;99575.13;5050770;28;20219;-76
2023/04/17 02:24:18;;;;;;;2.25;1.77;;;;;;;12.49;100.00;99576.00;5050237;28;20202;-75
2023/04/17 02:26:45;;;;;;;1.70;1.70;;;;;;;12.42;100.00;99557.81;5049138;28;20220;-75
2023/04/17 02:29:12;;;;;;;0.90;0.90;;;;;;;12.57;100.00;99572.53;5050136;28;20650;-77
2023/04/17 02:31:40;;;;;;;0.60;0.60;;;;;;;12.55;100.00;99552.59;5052206;28;20211;-77
2023/04/17 02:34:08;;;;;;;0.70;0.70;;;;;;;12.58;100.00;99563.00;5054103;28;20262;-75
2023/04/17 02:36:35;;;;;;;0.55;0.55;;;;;;;12.49;100.00;99558.66;5054124;28;20207;-77
2023/04/17 02:39:02;;;;;;;0.60;0.60;;;;;;;12.77;100.00;99569.91;5053670;28;20533;-76
2023/04/17 02:41:29;;;;;;;0.70;0.70;;;;;;;12.65;100.00;99576.00;5053794;28;20227;-76
2023/04/17 02:43:55;;;;;;;2.63;2.47;;;;;;;12.54;100.00;99580.34;5053615;28;20208;-76
2023/04/17 02:46:22;;;;;;;0.60;0.60;;;;;;;12.52;100.00;99563.03;5054146;28;20238;-77
2023/04/17 02:48:49;;;;;;;0.80;0.80;;;;;;;12.59;100.00;99568.19;5053733;28;20218;-76
2023/04/17 02:51:17;;;;;;;0.60;0.60;;;;;;;12.82;100.00;99573.34;5053688;28;20210;-75
2023/04/17 02:53:44;;;;;;;0.60;0.60;;;;;;;12.68;100.00;99573.38;5054173;28;20214;-76
2023/04/17 02:56:11;;;;;;;0.60;0.60;;;;;;;12.61;100.00;99576.00;5053830;28;20249;-76
2023/04/17 02:58:38;;;;;;;0.75;0.75;;;;;;;12.57;100.00;99551.72;5053751;28;20245;-77
2023/04/17 03:01:05;;;;;;;3.63;1.00;;;;;;;12.62;100.00;99569.94;5053831;28;20282;-76
2023/04/17 03:03:33;;;;;;;0.65;0.65;;;;;;;12.68;100.00;99569.91;5052901;28;20203;-76
2023/04/17 03:06:00;;;;;;;0.75;0.75;;;;;;;12.62;100.00;99575.13;5053774;28;20242;-77
2023/04/17 03:08:34;;;;;;;1.08;1.08;;;;;;;12.55;100.00;99579.47;5035291;28;20692;-76
2023/04/17 03:11:02;;;;;;;0.75;0.75;;;;;;;12.46;100.00;99578.59;5052734;28;20314;-76
2023/04/17 03:13:28;;;;;;;0.80;0.80;;;;;;;12.56;100.00;99580.31;5034839;28;20262;-76
2023/04/17 03:15:55;;;;;;;0.65;0.65;;;;;;;12.48;100.00;99569.09;5053924;28;20199;-76
2023/04/17 03:18:22;;;;;;;0.63;0.63;;;;;;;12.64;100.00;99565.56;5053429;28;20199;-76
2023/04/17 03:20:49;;;;;;;2.70;1.35;;;;;;;12.64;100.00;99579.47;5053206;28;20203;-77
2023/04/17 03:23:16;;;;;;;0.70;0.70;;;;;;;12.57;100.00;99579.47;5052876;28;20197;-76
2023/04/17 03:25:44;;;;;;;0.95;0.95;;;;;;;12.55;100.00;99583.81;5051614;28;20215;-76
2023/04/17 03:28:11;;;;;;;0.90;0.90;;;;;;;12.39;100.00;99565.63;5053201;28;20215;-76
2023/04/17 03:30:37;;;;;;;0.70;0.70;;;;;;;12.37;100.00;99569.97;5052834;28;20195;-76
2023/04/17 03:33:04;;;;;;;3.08;2.88;;;;;;;12.38;100.00;99574.28;5053321;28;20200;-76
2023/04/17 03:35:31;;;;;;;0.88;0.88;;;;;;;12.37;100.00;99569.97;5053291;28;20208;-76
2023/04/17 03:37:58;;;;;;;0.85;0.85;;;;;;;12.36;100.00;99573.41;5052919;28;20261;-77
2023/04/17 03:40:25;;;;;;;0.85;0.85;;;;;;;12.21;100.00;99550.03;5018060;28;20195;-77
2023/04/17 03:42:53;;;;;;;2.97;2.78;;;;;;;12.25;100.00;99576.88;5053275;28;20204;-76
2023/04/17 03:45:20;;;;;;;1.88;1.77;;;;;;;12.24;100.00;99552.63;5017864;28;20204;-77
2023/04/17 03:47:47;;;;;;;2.63;2.20;;;;;;;12.23;100.00;99545.72;5017364;28;20306;-76
2023/04/17 03:50:14;;;;;;;0.60;0.60;;;;;;;12.37;100.00;99567.38;5052112;28;20231;-75
2023/04/17 03:52:42;;;;;;;0.60;0.60;;;;;;;12.21;100.00;99546.56;5052997;28;20653;-76
2023/04/17 03:55:09;;;;;;;2.72;1.27;;;;;;;12.36;100.00;99544.81;5053111;28;20250;-76
2023/04/17 03:57:36;;;;;;;2.17;2.05;;;;;;;12.26;100.00;99545.69;5052374;28;20208;-77
2023/04/17 04:00:07;;;;;;;1.15;1.15;;;;;;;12.49;100.00;99565.59;5052534;28;20261;-77
2023/04/17 04:02:33;;;;;;;0.70;0.70;;;;;;;12.46;100.00;99573.41;5052335;28;20210;-77
2023/04/17 04:05:00;;;;;;;0.70;0.70;;;;;;;12.62;100.00;99593.34;5052466;28;20196;-78
2023/04/17 04:07:27;;;;;;;1.02;1.02;;;;;;;12.97;100.00;99593.28;5052413;28;20234;-85
2023/04/17 04:09:54;;;;;;;0.70;0.70;;;;;;;12.75;100.00;99598.50;5051727;28;20200;-78
2023/04/17 04:12:21;;;;;;;0.90;0.90;;;;;;;12.65;100.00;99589.00;5052431;28;20304;-79
2023/04/17 04:14:48;;;;;;;0.70;0.70;;;;;;;12.69;100.00;99602.88;5052413;28;20239;-76
2023/04/17 04:17:16;;;;;;;0.80;0.80;;;;;;;12.88;100.00;99600.22;5052238;28;20222;-78
2023/04/17 04:19:44;;;;;;;0.60;0.60;;;;;;;12.74;100.00;99604.56;5051073;28;20671;-77
2023/04/17 04:22:12;;;;;;;14.70;1.85;;;;;;;12.67;100.00;99600.25;5052828;28;20199;-77
2023/04/17 04:24:39;;;;;;;0.63;0.63;;;;;;;12.48;100.00;99571.69;5040898;28;20200;-76
2023/04/17 04:27:06;;;;;;;0.60;0.60;;;;;;;12.66;100.00;99602.88;5052914;28;20223;-77
2023/04/17 04:29:33;;;;;;;7.13;1.55;;;;;;;12.69;100.00;99584.66;5017831;28;20199;-76
2023/04/17 04:32:01;;;;;;;2.15;2.05;;;;;;;12.77;100.00;99611.53;5017192;28;20199;-77
2023/04/17 04:34:29;;;;;;;0.60;0.60;;;;;;;12.81;100.00;99602.81;5052471;28;20282;-76
2023/04/17 04:36:56;;;;;;;0.70;0.70;;;;;;;12.84;100.00;99608.06;5052924;28;20294;-77
2023/04/17 04:39:23;;;;;;;0.70;0.70;;;;;;;12.85;100.00;99615.84;5052916;28;20245;-77
2023/04/17 04:41:50;;;;;;;0.60;0.60;;;;;;;12.95;100.00;99614.06;5052435;28;20639;-78
2023/04/17 04:44:17;;;;;;;1.05;1.05;;;;;;;12.68;100.00;99611.53;5051916;28;20527;-77
2023/04/17 04:46:44;;;;;;;1.33;1.33;;;;;;;12.72;100.00;99613.25;5052053;28;20204;-78
2023/04/17 04:49:12;;;;;;;0.70;0.70;;;;;;;12.72;100.00;99621.06;5051738;28;20626;-78
2023/04/17 04:51:40;;;;;;;0.98;0.98;;;;;;;12.62;100.00;99614.16;5052343;28;20216;-78
2023/04/17 04:54:06;;;;;;;0.82;0.82;;;;;;;12.67;100.00;99620.19;5051197;28;20579;-78
2023/04/17 04:56:33;;;;;;;1.05;1.05;;;;;;;12.56;100.00;99621.94;5052172;28;20196;-78
2023/04/17 04:59:00;;;;;;;0.93;0.93;;;;;;;12.73;100.00;99641.00;5052135;28;20579;-77
2023/04/17 05:01:28;;;;;;;0.70;0.70;;;;;;;12.70;100.00;99641.88;5051614;28;20633;-77
2023/04/17 05:03:55;;;;;;;0.60;0.60;;;;;;;12.68;100.00;99642.75;5017272;28;20203;-76
2023/04/17 05:06:22;;;;;;;0.88;0.88;;;;;;;12.69;100.00;99649.69;5051824;28;20645;-75
2023/04/17 05:08:50;;;;;;;0.70;0.70;;;;;;;12.87;100.00;99649.66;5050807;28;20215;-75
2023/04/17 05:11:16;;;;;;;1.48;1.38;;;;;;;12.71;100.00;99663.53;5051094;28;20715;-76
2023/04/17 05:13:43;;;;;;;4.20;1.15;;;;;;;12.65;100.00;99632.34;5051368;28;20191;-76
2023/04/17 05:16:10;;;;;;;1.25;1.25;;;;;;;12.57;100.00;99652.28;5051032;28;20192;-73
2023/04/17 05:18:37;;;;;;;0.70;0.70;;;;;;;12.67;100.00;99648.81;5051097;28;20207;-78
2023/04/17 05:21:04;;;;;;;0.70;0.70;;;;;;;12.77;100.00;99679.16;5050963;28;20199;-77
2023/04/17 05:23:31;;;;;;;0.60;0.60;;;;;;;12.76;100.00;99680.91;5051579;28;20199;-77
2023/04/17 05:25:59;;;;;;;0.90;0.90;;;;;;;12.91;100.00;99680.03;5051351;28;20211;-78
2023/04/17 05:28:28;;;;;;;0.70;0.70;;;;;;;12.95;100.00;99691.31;5016035;28;20227;-75
2023/04/17 05:30:55;;;;;;;0.60;0.60;;;;;;;12.83;100.00;99695.66;5051109;28;20199;-76
2023/04/17 05:33:22;;;;;;;0.90;0.90;;;;;;;13.08;100.00;99688.69;5050120;28;20235;-76
2023/04/17 05:35:50;;;;;;;0.70;0.70;;;;;;;12.90;100.00;99696.50;5036260;28;20671;-77
2023/04/17 05:38:16;;;;;;;0.70;0.70;;;;;;;12.84;100.00;99679.13;5025505;28;20286;-79
2023/04/17 05:40:44;;;;;;;0.60;0.60;;;;;;;12.62;100.00;99667.03;5060776;28;20207;-77
2023/04/17 05:43:12;;;;;;;1.02;1.02;;;;;;;13.01;100.00;99699.97;5060564;28;20207;-75
2023/04/17 05:45:40;;;;;;;0.60;0.60;;;;;;;12.88;100.00;99693.00;5052392;28;20199;-77
2023/04/17 05:48:07;;;;;;;1.58;1.50;;;;;;;12.78;100.00;99692.16;5047578;28;20664;-75
2023/04/17 05:50:34;;;;;;;0.60;0.60;;;;;;;12.73;100.00;99693.03;5050254;28;20234;-76
2023/04/17 05:53:00;;;;;;;0.70;0.70;;;;;;;12.77;100.00;99689.56;5050871;28;20207;-75
2023/04/17 05:55:27;;;;;;;1.13;1.13;;;;;;;12.70;100.00;99695.66;5050009;28;20282;-76
2023/04/17 05:57:54;;;;;;;0.60;0.60;;;;;;;12.52;100.00;99687.84;5065868;28;20202;-75
2023/04/17 06:00:23;;;;;;;0.70;0.70;;;;;;;12.48;100.00;99686.97;5054400;28;20203;-74
2023/04/17 06:02:51;;;;;;;0.70;0.70;;;;;;;12.38;100.00;99691.25;5053019;28;20590;-73
2023/04/17 06:05:18;;;;;;;1.02;1.02;;;;;;;12.42;100.00;99682.59;5056703;28;20291;-75
2023/04/17 06:07:44;;;;;;;0.70;0.70;;;;;;;12.38;100.00;99680.00;5059144;28;20226;-74
2023/04/17 06:10:11;;;;;;;0.60;0.60;;;;;;;12.22;100.00;99654.84;5054264;28;20206;-74
2023/04/17 06:12:39;;;;;;;0.63;0.63;;;;;;;12.34;100.00;99688.69;5059678;28;20192;-73
2023/04/17 06:15:07;;;;;;;0.60;0.60;;;;;;;12.37;100.00;99702.56;5062678;28;20202;-75
2023/04/17 06:17:37;;;;;;;0.70;0.70;;;;;;;12.37;100.00;99702.56;5074921;28;20284;-74
2023/04/17 06:20:08;;;;;;;1.35;1.35;;;;;;;12.43;100.00;99707.75;5057488;28;20233;-74
2023/04/17 06:22:35;;;;;;;1.23;1.23;;;;;;;12.43;100.00;99699.94;5054123;28;20207;-74
2023/04/17 06:25:02;;;;;;;0.80;0.80;;;;;;;12.30;100.00;99698.22;5023910;28;20673;-74
2023/04/17 06:27:29;;;;;;;0.60;0.60;;;;;;;12.24;100.00;99705.09;5056599;28;20226;-75
2023/04/17 06:29:56;;;;;;;0.57;0.57;;;;;;;12.35;100.00;99706.88;5054054;28;20199;-75
2023/04/17 06:32:23;;;;;;;0.70;0.70;;;;;;;12.30;100.00;99708.59;5058479;28;20203;-74
2023/04/17 06:34:51;;;;;;;0.70;0.70;;;;;;;12.53;100.00;99705.16;5054198;28;20200;-77
2023/04/17 06:37:18;;;;;;;1.02;1.02;;;;;;;12.38;100.00;99704.25;5035172;28;20218;-75
2023/04/17 06:39:45;;;;;;;0.70;0.70;;;;;;;12.48;100.00;99704.28;5052270;28;20225;-75
2023/04/17 06:42:11;;;;;;;0.90;0.90;;;;;;;12.38;100.00;99704.25;5053852;28;20257;-75
2023/04/17 06:44:38;;;;;;;1.23;1.23;;;;;;;12.30;100.00;99682.59;5051020;28;20206;-75
2023/04/17 06:47:05;;;;;;;0.70;0.70;;;;;;;12.45;100.00;99714.69;5018876;28;20211;-74
2023/04/17 06:49:32;;;;;;;0.60;0.60;;;;;;;12.33;100.00;99687.81;5053916;28;20210;-73
2023/04/17 06:52:00;;;;;;;0.70;0.70;;;;;;;12.54;100.00;99705.16;5053722;28;20207;-75
2023/04/17 06:54:27;;;;;;;0.98;0.98;;;;;;;12.59;100.00;99710.38;5053266;28;20370;-75
2023/04/17 06:56:54;;;;;;;0.82;0.82;;;;;;;12.47;100.00;99710.34;5018264;28;20215;-75
2023/04/17 06:59:21;;;;;;;0.68;0.68;;;;;;;12.69;100.00;99712.13;5053852;28;20211;-77
2023/04/17 07:01:48;;;;;;;1.25;1.25;;;;;;;12.53;100.00;99702.53;5051398;28;20200;-77
2023/04/17 07:04:16;;;;;;;0.80;0.80;;;;;;;12.59;100.00;99720.78;5056428;28;20573;-78
2023/04/17 07:06:43;;;;;;;0.80;0.80;;;;;;;12.56;100.00;99715.53;5054330;28;20569;-76
2023/04/17 07:09:11;;;;;;;0.60;0.60;;;;;;;12.59;100.00;99710.38;5054233;28;20238;-75
2023/04/17 07:11:38;;;;;;;0.60;0.60;;;;;;;12.43;100.00;99705.16;5044978;28;20616;-78
2023/04/17 07:14:05;;;;;;;5.03;3.60;;;;;;;12.52;100.00;99713.84;5053099;28;20222;-76
2023/04/17 07:16:31;;;;;;;7.88;2.10;;;;;;;12.67;100.00;99717.31;5034352;28;20710;-77
2023/04/17 07:18:58;;;;;;;1.70;1.60;;;;;;;12.49;100.00;99714.69;5052245;28;20584;-77
2023/04/17 07:21:25;;;;;;;1.15;1.15;;;;;;;12.39;100.00;99712.94;5048691;28;20203;-77
2023/04/17 07:23:52;;;;;;;0.60;0.60;;;;;;;12.51;100.00;99706.91;5017317;28;20204;-74
2023/04/17 07:26:21;;;;;;;0.60;0.60;;;;;;;12.58;100.00;99719.91;5052807;28;20211;-74
2023/04/17 07:28:48;;;;;;;0.73;0.73;;;;;;;12.41;100.00;99729.41;5052419;28;20293;-74
2023/04/17 07:31:15;;;;;;;2.17;1.02;;;;;;;12.49;100.00;99743.28;5052905;28;20258;-75
2023/04/17 07:33:41;;;;;;;0.70;0.70;;;;;;;12.35;100.00;99743.25;5052416;28;20568;-74
2023/04/17 07:36:10;;;;;;;2.20;2.08;;;;;;;12.45;100.00;99722.50;5052820;28;20199;-75
2023/04/17 07:38:37;;;;;;;0.88;0.88;;;;;;;12.61;100.00;99745.03;5049266;28;20199;-75
2023/04/17 07:41:04;;;;;;;0.90;0.90;;;;;;;12.57;100.00;99751.09;5052796;28;20199;-75
2023/04/17 07:43:32;;;;;;;1.08;1.08;;;;;;;12.42;100.00;99747.59;5052925;28;20203;-76
2023/04/17 07:45:59;;;;;;;0.63;0.63;;;;;;;12.48;100.00;99754.56;5052506;28;20209;-74
2023/04/17 07:48:27;;;;;;;1.00;1.00;;;;;;;12.60;100.00;99751.09;5050175;28;20230;-75
2023/04/17 07:50:53;;;;;;;0.55;0.55;;;;;;;12.67;100.00;99739.84;5051410;28;20235;-74
2023/04/17 07:53:21;;;;;;;0.95;0.95;;;;;;;12.79;100.00;99750.25;5053205;28;20212;-75
2023/04/17 07:55:47;;;;;;;0.60;0.60;;;;;;;12.71;100.00;99749.38;5063253;28;20264;-75
2023/04/17 07:58:15;;;;;;;2.13;2.00;;;;;;;12.64;100.00;99713.81;5054434;28;20708;-75
2023/04/17 08:00:43;;;;;;;0.63;0.63;;;;;;;12.79;100.00;99734.66;5055176;28;20208;-75
2023/04/17 08:03:12;;;;;;;0.80;0.80;;;;;;;12.99;100.00;99756.34;5051742;28;20208;-76
2023/04/17 08:05:39;;;;;;;0.68;0.68;;;;;;;12.95;100.00;99744.19;5052580;28;20231;-77
2023/04/17 08:08:06;;;;;;;0.60;0.60;;;;;;;13.03;100.00;99745.06;5053954;28;20231;-76
2023/04/17 08:10:33;;;;;;;1.25;1.25;;;;;;;13.17;100.00;99743.34;5055302;28;20226;-74
2023/04/17 08:13:01;;;;;;;0.60;0.60;;;;;;;13.32;100.00;99743.34;5042948;28;20208;-73
2023/04/17 08:15:27;;;;;;;0.60;0.60;;;;;;;13.22;100.00;99759.84;5041064;28;20232;-73
2023/04/17 08:17:57;;;;;;;0.50;0.50;;;;;;;13.21;100.00;99762.44;5051088;28;20195;-75
2023/04/17 08:20:23;;;;;;;0.75;0.75;;;;;;;13.11;100.00;99732.94;5051223;28;20207;-73
2023/04/17 08:22:50;;;;;;;0.70;0.70;;;;;;;13.21;100.00;99767.63;5052883;28;20199;-71
2023/04/17 08:25:17;;;;;;;0.70;0.70;;;;;;;13.18;100.00;99750.28;5043542;28;20212;-75
2023/04/17 08:27:44;;;;;;;0.60;0.60;;;;;;;13.24;100.00;99765.03;5049174;28;20221;-74
2023/04/17 08:30:12;;;;;;;0.60;0.60;;;;;;;13.38;100.00;99745.91;5049103;28;20216;-74
2023/04/17 08:32:40;;;;;;;0.60;0.60;;;;;;;13.34;100.00;99741.59;5047075;28;20203;-74
2023/04/17 08:35:10;;;;;;;1.15;1.15;;;;;;;13.35;100.00;99758.06;5030762;28;20207;-71
2023/04/17 08:37:37;;;;;;;0.70;0.70;;;;;;;13.17;100.00;99730.31;5046790;28;20203;-74
2023/04/17 08:40:05;;;;;;;0.70;0.70;;;;;;;13.15;100.00;99719.06;5051358;28;20204;-73
2023/04/17 08:42:35;;;;;;;0.60;0.60;;;;;;;13.48;100.00;99720.75;5051092;28;20257;-74
2023/04/17 08:45:05;;;;;;;0.80;0.80;;;;;;;13.54;100.00;99738.09;5051007;28;20238;-75
2023/04/17 08:47:33;;;;;;;0.60;0.60;;;;;;;13.50;100.00;99741.56;5041359;28;20299;-73
2023/04/17 08:50:07;;;;;;;0.80;0.80;;;;;;;13.56;100.00;99746.75;5051265;28;20717;-75
2023/04/17 08:52:39;;;;;;;0.60;0.60;;;;;;;13.66;100.00;99745.88;5051616;28;20602;-79
2023/04/17 08:55:06;;;;;;;0.80;0.80;;;;;;;13.63;100.00;99758.88;5050571;28;20283;-75
2023/04/17 08:57:33;;;;;;;0.60;0.60;;;;;;;13.53;100.00;99751.97;5039667;28;20199;-75
2023/04/17 09:00:05;;;;;;;1.20;1.20;;;;;;;13.32;100.00;99753.75;5050813;28;20207;-75
2023/04/17 09:02:32;;;;;;;0.50;0.50;;;;;;;13.29;100.00;99735.53;5052917;28;20200;-76
2023/04/17 09:04:59;;;;;;;0.60;0.60;;;;;;;13.48;100.00;99731.16;5051286;28;20207;-75
2023/04/17 09:07:29;;;;;;;0.70;0.70;;;;;;;13.82;100.00;99738.00;5051293;28;20210;-76
2023/04/17 09:09:57;;;;;;;0.88;0.88;;;;;;;14.03;100.00;99747.47;5050801;28;20255;-76
2023/04/17 09:12:25;;;;;;;0.60;0.60;;;;;;;13.64;100.00;99722.41;5050733;28;20292;-76
2023/04/17 09:14:52;;;;;;;0.70;0.70;;;;;;;14.04;100.00;99754.41;5047972;28;20635;-76
2023/04/17 09:17:21;;;;;;;1.05;1.05;;;;;;;14.01;100.00;99756.16;5055435;28;20195;-76
2023/04/17 09:20:10;;;;;;;0.75;0.75;;;;;;;13.86;100.00;99762.31;5046926;28;20306;-74
2023/04/17 09:22:39;;;;;;;0.52;0.52;;;;;;;13.74;100.00;99759.72;5048187;28;20209;-73
2023/04/17 09:25:17;;;;;;;0.60;0.60;;;;;;;14.16;100.00;99762.16;5049226;28;20273;-76
2023/04/17 09:27:45;;;;;;;0.88;0.88;;;;;;;13.98;100.00;99761.41;5051273;28;20334;-75
2023/04/17 09:30:12;;;;;;;0.65;0.65;;;;;;;13.96;100.00;99764.00;5053317;28;20227;-75
2023/04/17 09:32:40;;;;;;;5.15;2.78;;;;;;;13.76;100.00;99755.41;5054655;28;20191;-75
2023/04/17 09:35:07;;;;;;;0.60;0.60;;;;;;;13.77;100.00;99755.38;5048040;28;20207;-75
2023/04/17 09:37:51;;;;;;;0.90;0.90;;;;;;;13.58;100.00;99708.56;5042780;28;20207;-76
2023/04/17 09:40:20;;;;;;;0.80;0.80;;;;;;;13.98;100.00;99762.28;5046794;28;20210;-75
2023/04/17 09:42:55;;;;;;;0.60;0.60;;;;;;;14.12;100.00;99755.25;5038022;28;20215;-76
2023/04/17 09:45:23;;;;;;;0.60;0.60;;;;;;;13.98;100.00;99757.06;5050107;28;20210;-74
2023/04/17 09:47:51;;;;;;;0.60;0.60;;;;;;;14.19;100.00;99762.19;5050312;28;20203;-74
2023/04/17 09:50:20;;;;;;;0.60;0.60;;;;;;;14.09;100.00;99757.84;5057222;28;20227;-75
2023/04/17 09:52:49;;;;;;;0.50;0.50;;;;;;;14.24;100.00;99757.78;5042724;28;20702;-76
2023/04/17 09:55:20;;;;;;;0.80;0.80;;;;;;;14.31;100.00;99750.78;5046846;28;20214;-74
2023/04/17 09:57:49;;;;;;;0.60;0.60;;;;;;;14.64;100.00;99750.63;5048803;28;20900;-78
2023/04/17 10:00:19;;;;;;;0.60;0.60;;;;;;;14.64;100.00;99750.63;5049157;28;20227;-75
2023/04/17 10:02:50;;;;;;;0.50;0.50;;;;;;;14.59;100.00;99770.66;5030868;28;20199;-76
2023/04/17 10:05:18;;;;;;;0.60;0.60;;;;;;;14.54;100.00;99742.88;5048828;28;20209;-76
2023/04/17 10:07:45;;;;;;;0.60;0.60;;;;;;;14.30;100.00;99752.53;5049608;28;20257;-75
2023/04/17 10:10:13;;;;;;;0.70;0.70;;;;;;;14.29;100.00;99768.19;5049343;28;20227;-80
2023/04/17 10:12:41;;;;;;;0.60;0.60;;;;;;;14.30;100.00;99769.94;5046521;28;20191;-75
2023/04/17 10:15:14;;;;;;;0.60;0.60;;;;;;;14.37;100.00;99771.69;5047066;28;20208;-76
2023/04/17 10:17:41;;;;;;;0.70;0.70;;;;;;;14.29;100.00;99763.00;5050520;28;20326;-77
2023/04/17 10:20:34;;;;;;;0.50;0.50;;;;;;;14.39;100.00;99767.31;5048577;28;20710;-76
2023/04/17 10:23:28;;;;;;;0.60;0.60;;;;;;;14.15;100.00;99755.25;5047413;28;20191;-77
2023/04/17 10:26:37;;;;;;;0.60;0.60;;;;;;;14.15;100.00;99739.59;5045639;28;20227;-78
2023/04/17 10:29:03;;;;;;;0.60;0.60;;;;;;;13.89;100.00;99752.72;4986298;28;20221;-76
2023/04/17 10:32:03;;;;;;;0.60;0.60;;;;;;;14.30;100.00;99765.56;4987869;28;20198;-77
2023/04/17 10:34:38;;;;;;;0.60;0.60;;;;;;;14.04;100.00;99762.25;4986846;28;20194;-72
2023/04/17 10:37:04;;;;;;;0.60;0.60;;;;;;;13.90;100.00;99764.03;4986221;28;20234;-74
2023/04/17 10:39:50;;;;;;;0.70;0.70;;;;;;;13.83;100.00;99754.50;4986928;28;20212;-73
2023/04/17 10:42:19;;;;;;;0.60;0.60;;;;;;;13.88;100.00;99761.41;4986335;28;20747;-76
2023/04/17 10:44:46;;;;;;;1.10;1.10;;;;;;;13.68;100.00;99744.13;4987904;28;20266;-75
2023/04/17 10:47:13;;;;;;;0.60;0.60;;;;;;;13.64;100.00;99765.84;4987892;28;20660;-74
2023/04/17 10:49:53;;;;;;;0.98;0.98;;;;;;;13.73;100.00;99752.81;4988614;28;20291;-75
2023/04/17 10:52:40;;;;;;;0.73;0.73;;;;;;;14.21;100.00;99760.41;4987833;28;20209;-75
2023/04/17 10:55:08;;;;;;;0.60;0.60;;;;;;;14.11;100.00;99769.16;4987956;28;20543;-76
2023/04/17 10:57:58;;;;;;;0.50;0.50;;;;;;;13.86;100.00;99770.13;4991250;28;20197;-76
2023/04/17 11:00:32;;;;;;;0.50;0.50;;;;;;;14.06;100.00;99770.91;4991717;28;20209;-76
2023/04/17 11:02:59;;;;;;;0.60;0.60;;;;;;;13.79;100.00;99743.22;4991527;28;20400;-73
2023/04/17 11:05:30;;;;;;;0.70;0.70;;;;;;;13.91;100.00;99760.56;5014347;28;20600;-74
2023/04/17 11:07:56;;;;;;;0.60;0.60;;;;;;;13.95;100.00;99770.06;5052774;28;20234;-75
2023/04/17 11:10:23;;;;;;;0.80;0.80;;;;;;;13.69;100.00;99753.69;5053026;28;20737;-74
2023/04/17 11:12:52;;;;;;;0.70;0.70;;;;;;;13.76;100.00;99732.81;5052882;28;20222;-75
2023/04/17 11:15:26;;;;;;;0.60;0.60;;;;;;;13.95;100.00;99736.19;5052906;28;20749;-75
2023/04/17 11:17:53;;;;;;;0.60;0.60;;;;;;;13.99;100.00;99743.13;5052688;28;20278;-74
2023/04/17 11:20:20;;;;;;;0.60;0.60;;;;;;;13.91;100.00;99750.97;5053129;28;20207;-76
2023/04/17 11:22:49;;;;;;;0.57;0.57;;;;;;;13.99;100.00;99748.34;5052481;28;20207;-74
2023/04/17 11:25:21;;;;;;;0.57;0.57;;;;;;;14.11;100.00;99748.31;5046526;28;20638;-74
2023/04/17 11:27:51;;;;;;;0.70;0.70;;;;;;;14.08;100.00;99757.88;5016495;28;20253;-76
2023/04/17 11:30:25;;;;;;;0.60;0.60;;;;;;;14.00;100.00;99738.78;5052732;28;20310;-74